sensor_id;sensor_type;location;lat;lon;timestamp;temperature;humidity
16313;DHT22;8265;52.622;13.296;2022-12-07T00:02:00;1.40;96.70
16313;DHT22;8265;52.622;13.296;2022-12-07T00:07:21;1.20;97.00
16313;DHT22;8265;52.622;13.296;2022-12-07T00:12:42;1.20;96.50
16313;DHT22;8265;52.622;13.296;2022-12-07T00:18:03;1.10;95.80
16313;DHT22;8265;52.622;13.296;2022-12-07T00:23:24;1.00;96.10
16313;DHT22;8265;52.622;13.296;2022-12-07T00:28:48;1.00;96.70
16313;DHT22;8265;52.622;13.296;2022-12-07T00:34:11;1.00;96.60
16313;DHT22;8265;52.622;13.296;2022-12-07T00:39:27;1.00;96.70
16313;DHT22;8265;52.622;13.296;2022-12-07T00:44:48;1.00;96.60
16313;DHT22;8265;52.622;13.296;2022-12-07T00:50:09;0.90;96.20
16313;DHT22;8265;52.622;13.296;2022-12-07T00:55:32;0.80;96.10
16313;DHT22;8265;52.622;13.296;2022-12-07T01:00:50;0.60;97.20
16313;DHT22;8265;52.622;13.296;2022-12-07T01:06:13;0.50;96.90
16313;DHT22;8265;52.622;13.296;2022-12-07T01:11:32;0.50;97.20
16313;DHT22;8265;52.622;13.296;2022-12-07T01:16:53;0.50;97.30
16313;DHT22;8265;52.622;13.296;2022-12-07T01:22:14;0.60;97.70
16313;DHT22;8265;52.622;13.296;2022-12-07T01:27:35;0.50;97.50
16313;DHT22;8265;52.622;13.296;2022-12-07T01:32:56;0.50;97.40
16313;DHT22;8265;52.622;13.296;2022-12-07T01:38:17;0.60;96.60
16313;DHT22;8265;52.622;13.296;2022-12-07T01:44:07;0.60;96.70
16313;DHT22;8265;52.622;13.296;2022-12-07T01:48:59;0.60;95.80
16313;DHT22;8265;52.622;13.296;2022-12-07T01:54:20;0.50;95.80
16313;DHT22;8265;52.622;13.296;2022-12-07T01:59:41;0.50;96.20
16313;DHT22;8265;52.622;13.296;2022-12-07T02:05:03;0.30;96.90
16313;DHT22;8265;52.622;13.296;2022-12-07T02:10:24;0.30;97.20
16313;DHT22;8265;52.622;13.296;2022-12-07T02:21:13;0.10;97.50
16313;DHT22;8265;52.622;13.296;2022-12-07T02:26:43;0.10;97.50
16313;DHT22;8265;52.622;13.296;2022-12-07T02:37:33;0.00;97.00
16313;DHT22;8265;52.622;13.296;2022-12-07T02:42:36;0.00;97.40
16313;DHT22;8265;52.622;13.296;2022-12-07T02:47:51;0.00;97.40
16313;DHT22;8265;52.622;13.296;2022-12-07T02:53:42;0.00;97.40
16313;DHT22;8265;52.622;13.296;2022-12-07T02:58:35;-0.10;97.50
16313;DHT22;8265;52.622;13.296;2022-12-07T03:04:17;-0.10;97.90
16313;DHT22;8265;52.622;13.296;2022-12-07T03:09:21;-0.10;98.00
16313;DHT22;8265;52.622;13.296;2022-12-07T03:14:40;-0.20;98.30
16313;DHT22;8265;52.622;13.296;2022-12-07T03:19:58;-0.10;98.40
16313;DHT22;8265;52.622;13.296;2022-12-07T03:25:17;-0.10;98.40
16313;DHT22;8265;52.622;13.296;2022-12-07T03:30:57;-0.10;98.50
16313;DHT22;8265;52.622;13.296;2022-12-07T03:36:04;0.00;98.80
16313;DHT22;8265;52.622;13.296;2022-12-07T03:41:27;0.00;98.70
16313;DHT22;8265;52.622;13.296;2022-12-07T03:57:23;0.20;98.80
16313;DHT22;8265;52.622;13.296;2022-12-07T04:02:44;0.20;98.80
16313;DHT22;8265;52.622;13.296;2022-12-07T04:08:05;0.30;99.00
16313;DHT22;8265;52.622;13.296;2022-12-07T04:13:26;0.30;99.00
16313;DHT22;8265;52.622;13.296;2022-12-07T04:18:47;0.40;99.10
16313;DHT22;8265;52.622;13.296;2022-12-07T04:24:08;0.50;98.90
16313;DHT22;8265;52.622;13.296;2022-12-07T04:29:29;0.50;98.80
16313;DHT22;8265;52.622;13.296;2022-12-07T04:34:50;0.50;99.00
16313;DHT22;8265;52.622;13.296;2022-12-07T04:40:11;0.40;99.30
16313;DHT22;8265;52.622;13.296;2022-12-07T04:45:32;0.40;99.80
16313;DHT22;8265;52.622;13.296;2022-12-07T04:50:53;0.50;99.90
16313;DHT22;8265;52.622;13.296;2022-12-07T04:56:14;0.60;99.70
16313;DHT22;8265;52.622;13.296;2022-12-07T05:01:35;0.60;99.80
16313;DHT22;8265;52.622;13.296;2022-12-07T05:06:55;0.70;99.70
16313;DHT22;8265;52.622;13.296;2022-12-07T05:12:16;0.80;99.80
16313;DHT22;8265;52.622;13.296;2022-12-07T05:17:37;0.80;99.90
16313;DHT22;8265;52.622;13.296;2022-12-07T05:22:58;1.00;99.90
16313;DHT22;8265;52.622;13.296;2022-12-07T05:28:19;1.00;99.80
16313;DHT22;8265;52.622;13.296;2022-12-07T05:33:40;1.10;99.90
16313;DHT22;8265;52.622;13.296;2022-12-07T05:39:02;1.10;99.80
16313;DHT22;8265;52.622;13.296;2022-12-07T05:44:22;1.20;99.80
16313;DHT22;8265;52.622;13.296;2022-12-07T05:49:43;1.20;99.60
16313;DHT22;8265;52.622;13.296;2022-12-07T05:55:05;1.30;99.90
16313;DHT22;8265;52.622;13.296;2022-12-07T06:00:25;1.40;99.90
16313;DHT22;8265;52.622;13.296;2022-12-07T06:05:46;1.40;99.90
16313;DHT22;8265;52.622;13.296;2022-12-07T06:11:07;1.50;99.80
16313;DHT22;8265;52.622;13.296;2022-12-07T06:16:28;1.50;99.90
16313;DHT22;8265;52.622;13.296;2022-12-07T06:21:49;1.60;99.90
16313;DHT22;8265;52.622;13.296;2022-12-07T06:27:10;1.60;99.70
16313;DHT22;8265;52.622;13.296;2022-12-07T06:32:34;1.60;99.60
16313;DHT22;8265;52.622;13.296;2022-12-07T06:37:52;1.60;99.50
16313;DHT22;8265;52.622;13.296;2022-12-07T06:43:13;1.70;99.50
16313;DHT22;8265;52.622;13.296;2022-12-07T06:48:34;1.80;99.50
16313;DHT22;8265;52.622;13.296;2022-12-07T06:53:55;1.90;99.10
16313;DHT22;8265;52.622;13.296;2022-12-07T06:59:16;1.80;99.30
16313;DHT22;8265;52.622;13.296;2022-12-07T07:04:37;1.90;99.30
16313;DHT22;8265;52.622;13.296;2022-12-07T07:09:58;2.00;99.30
16313;DHT22;8265;52.622;13.296;2022-12-07T07:15:19;2.00;99.00
16313;DHT22;8265;52.622;13.296;2022-12-07T07:20:40;1.90;99.30
16313;DHT22;8265;52.622;13.296;2022-12-07T07:26:01;2.00;99.10
16313;DHT22;8265;52.622;13.296;2022-12-07T07:31:22;2.10;99.00
16313;DHT22;8265;52.622;13.296;2022-12-07T07:36:43;2.20;98.70
16313;DHT22;8265;52.622;13.296;2022-12-07T07:42:04;2.30;98.00
16313;DHT22;8265;52.622;13.296;2022-12-07T07:47:25;2.20;97.80
16313;DHT22;8265;52.622;13.296;2022-12-07T07:52:46;2.20;97.20
16313;DHT22;8265;52.622;13.296;2022-12-07T07:58:07;2.20;96.60
16313;DHT22;8265;52.622;13.296;2022-12-07T08:03:28;2.30;96.50
16313;DHT22;8265;52.622;13.296;2022-12-07T08:08:48;2.40;96.10
16313;DHT22;8265;52.622;13.296;2022-12-07T08:14:10;2.40;95.50
16313;DHT22;8265;52.622;13.296;2022-12-07T08:19:30;2.40;95.30
16313;DHT22;8265;52.622;13.296;2022-12-07T08:24:51;2.40;95.10
16313;DHT22;8265;52.622;13.296;2022-12-07T08:30:12;2.40;94.70
16313;DHT22;8265;52.622;13.296;2022-12-07T08:35:33;2.40;94.60
16313;DHT22;8265;52.622;13.296;2022-12-07T08:40:55;2.40;94.50
16313;DHT22;8265;52.622;13.296;2022-12-07T08:46:23;2.30;93.60
16313;DHT22;8265;52.622;13.296;2022-12-07T08:51:36;2.30;94.10
16313;DHT22;8265;52.622;13.296;2022-12-07T08:56:57;2.40;93.20
16313;DHT22;8265;52.622;13.296;2022-12-07T09:02:18;2.30;93.30
16313;DHT22;8265;52.622;13.296;2022-12-07T09:07:39;2.40;92.40
16313;DHT22;8265;52.622;13.296;2022-12-07T09:13:00;2.40;91.30
16313;DHT22;8265;52.622;13.296;2022-12-07T09:18:21;2.40;89.70
16313;DHT22;8265;52.622;13.296;2022-12-07T09:23:42;2.40;89.40
16313;DHT22;8265;52.622;13.296;2022-12-07T09:29:03;2.40;87.90
16313;DHT22;8265;52.622;13.296;2022-12-07T09:34:24;2.30;88.20
16313;DHT22;8265;52.622;13.296;2022-12-07T09:39:45;2.30;87.10
16313;DHT22;8265;52.622;13.296;2022-12-07T09:45:13;2.30;87.70
16313;DHT22;8265;52.622;13.296;2022-12-07T09:50:27;2.20;87.40
16313;DHT22;8265;52.622;13.296;2022-12-07T09:55:48;2.20;87.10
16313;DHT22;8265;52.622;13.296;2022-12-07T10:06:30;2.20;86.70
16313;DHT22;8265;52.622;13.296;2022-12-07T10:12:07;2.20;85.90
16313;DHT22;8265;52.622;13.296;2022-12-07T10:17:39;2.30;85.20
16313;DHT22;8265;52.622;13.296;2022-12-07T10:22:33;2.10;85.20
16313;DHT22;8265;52.622;13.296;2022-12-07T10:28:16;2.20;85.30
16313;DHT22;8265;52.622;13.296;2022-12-07T10:33:44;2.30;84.30
16313;DHT22;8265;52.622;13.296;2022-12-07T10:38:36;2.30;84.40
16313;DHT22;8265;52.622;13.296;2022-12-07T10:43:57;2.20;85.80
16313;DHT22;8265;52.622;13.296;2022-12-07T10:54:48;2.10;86.00
16313;DHT22;8265;52.622;13.296;2022-12-07T11:16:27;2.30;86.80
16313;DHT22;8265;52.622;13.296;2022-12-07T11:21:27;2.40;86.80
16313;DHT22;8265;52.622;13.296;2022-12-07T11:37:31;2.40;86.50
16313;DHT22;8265;52.622;13.296;2022-12-07T11:48:14;2.50;86.40
16313;DHT22;8265;52.622;13.296;2022-12-07T11:53:32;2.70;86.00
16313;DHT22;8265;52.622;13.296;2022-12-07T11:59:13;2.80;85.50
16313;DHT22;8265;52.622;13.296;2022-12-07T12:09:47;2.90;86.00
16313;DHT22;8265;52.622;13.296;2022-12-07T12:20:31;2.90;85.20
16313;DHT22;8265;52.622;13.296;2022-12-07T12:25:37;2.90;85.60
16313;DHT22;8265;52.622;13.296;2022-12-07T12:47:03;3.10;86.40
16313;DHT22;8265;52.622;13.296;2022-12-07T12:57:41;2.90;87.50
16313;DHT22;8265;52.622;13.296;2022-12-07T13:03:02;3.00;86.80
16313;DHT22;8265;52.622;13.296;2022-12-07T13:08:24;3.10;86.90
16313;DHT22;8265;52.622;13.296;2022-12-07T13:13:44;3.10;86.30
16313;DHT22;8265;52.622;13.296;2022-12-07T13:19:27;2.80;87.10
16313;DHT22;8265;52.622;13.296;2022-12-07T13:24:26;2.80;87.10
16313;DHT22;8265;52.622;13.296;2022-12-07T13:29:47;2.60;87.50
16313;DHT22;8265;52.622;13.296;2022-12-07T13:35:27;2.70;87.20
16313;DHT22;8265;52.622;13.296;2022-12-07T13:40:29;2.70;87.20
16313;DHT22;8265;52.622;13.296;2022-12-07T13:45:55;2.90;87.90
16313;DHT22;8265;52.622;13.296;2022-12-07T13:51:29;2.90;86.20
16313;DHT22;8265;52.622;13.296;2022-12-07T13:56:32;3.00;85.30
16313;DHT22;8265;52.622;13.296;2022-12-07T14:01:53;2.90;85.30
16313;DHT22;8265;52.622;13.296;2022-12-07T14:07:26;2.90;84.30
16313;DHT22;8265;52.622;13.296;2022-12-07T14:12:35;3.00;84.50
16313;DHT22;8265;52.622;13.296;2022-12-07T14:17:56;2.90;84.60
16313;DHT22;8265;52.622;13.296;2022-12-07T14:23:23;2.90;84.70
16313;DHT22;8265;52.622;13.296;2022-12-07T14:28:37;2.90;85.50
16313;DHT22;8265;52.622;13.296;2022-12-07T14:33:59;3.00;84.80
16313;DHT22;8265;52.622;13.296;2022-12-07T14:39:19;2.80;85.60
16313;DHT22;8265;52.622;13.296;2022-12-07T14:44:40;2.80;85.40
16313;DHT22;8265;52.622;13.296;2022-12-07T14:50:01;2.80;86.30
16313;DHT22;8265;52.622;13.296;2022-12-07T14:55:23;2.60;86.90
16313;DHT22;8265;52.622;13.296;2022-12-07T15:00:43;2.40;88.20
16313;DHT22;8265;52.622;13.296;2022-12-07T15:06:05;2.50;88.00
16313;DHT22;8265;52.622;13.296;2022-12-07T15:11:25;2.40;88.50
16313;DHT22;8265;52.622;13.296;2022-12-07T15:16:46;2.40;88.40
16313;DHT22;8265;52.622;13.296;2022-12-07T15:22:07;2.40;87.30
16313;DHT22;8265;52.622;13.296;2022-12-07T15:27:28;2.40;86.80
16313;DHT22;8265;52.622;13.296;2022-12-07T15:32:49;2.40;86.90
16313;DHT22;8265;52.622;13.296;2022-12-07T15:38:10;2.20;86.90
16313;DHT22;8265;52.622;13.296;2022-12-07T15:43:31;2.30;86.60
16313;DHT22;8265;52.622;13.296;2022-12-07T15:48:52;2.40;85.80
16313;DHT22;8265;52.622;13.296;2022-12-07T15:54:17;2.30;86.10
16313;DHT22;8265;52.622;13.296;2022-12-07T15:59:34;2.30;86.40
16313;DHT22;8265;52.622;13.296;2022-12-07T16:04:55;2.40;86.70
16313;DHT22;8265;52.622;13.296;2022-12-07T16:10:16;2.40;86.80
16313;DHT22;8265;52.622;13.296;2022-12-07T16:15:40;2.30;86.70
16313;DHT22;8265;52.622;13.296;2022-12-07T16:20:58;2.30;86.70
16313;DHT22;8265;52.622;13.296;2022-12-07T16:26:20;2.00;87.20
16313;DHT22;8265;52.622;13.296;2022-12-07T16:31:40;1.80;88.00
16313;DHT22;8265;52.622;13.296;2022-12-07T16:37:01;1.60;88.80
16313;DHT22;8265;52.622;13.296;2022-12-07T16:42:22;1.40;89.70
16313;DHT22;8265;52.622;13.296;2022-12-07T16:47:43;1.30;90.10
16313;DHT22;8265;52.622;13.296;2022-12-07T16:53:03;1.20;90.00
16313;DHT22;8265;52.622;13.296;2022-12-07T16:58:24;1.10;90.50
16313;DHT22;8265;52.622;13.296;2022-12-07T17:03:46;1.10;90.50
16313;DHT22;8265;52.622;13.296;2022-12-07T17:09:07;0.90;91.10
16313;DHT22;8265;52.622;13.296;2022-12-07T17:14:27;1.00;91.40
16313;DHT22;8265;52.622;13.296;2022-12-07T17:19:48;0.90;91.40
16313;DHT22;8265;52.622;13.296;2022-12-07T17:25:10;0.80;91.50
16313;DHT22;8265;52.622;13.296;2022-12-07T17:30:30;0.80;91.50
16313;DHT22;8265;52.622;13.296;2022-12-07T17:35:51;0.80;91.50
16313;DHT22;8265;52.622;13.296;2022-12-07T17:41:28;0.70;91.80
16313;DHT22;8265;52.622;13.296;2022-12-07T17:46:33;0.80;91.70
16313;DHT22;8265;52.622;13.296;2022-12-07T17:51:54;0.60;92.20
16313;DHT22;8265;52.622;13.296;2022-12-07T17:57:15;0.50;92.50
16313;DHT22;8265;52.622;13.296;2022-12-07T18:02:36;0.50;92.70
16313;DHT22;8265;52.622;13.296;2022-12-07T18:07:57;0.50;92.50
16313;DHT22;8265;52.622;13.296;2022-12-07T18:13:18;0.50;92.60
16313;DHT22;8265;52.622;13.296;2022-12-07T18:18:40;0.40;93.20
16313;DHT22;8265;52.622;13.296;2022-12-07T18:24:01;0.30;93.30
16313;DHT22;8265;52.622;13.296;2022-12-07T18:29:21;0.20;93.60
16313;DHT22;8265;52.622;13.296;2022-12-07T18:34:42;0.00;93.90
16313;DHT22;8265;52.622;13.296;2022-12-07T18:40:04;0.00;94.40
16313;DHT22;8265;52.622;13.296;2022-12-07T18:45:24;0.00;94.60
16313;DHT22;8265;52.622;13.296;2022-12-07T18:50:46;0.00;94.50
16313;DHT22;8265;52.622;13.296;2022-12-07T18:56:08;0.00;93.60
16313;DHT22;8265;52.622;13.296;2022-12-07T19:01:28;-0.10;93.50
16313;DHT22;8265;52.622;13.296;2022-12-07T19:06:48;-0.10;93.20
16313;DHT22;8265;52.622;13.296;2022-12-07T19:12:12;0.00;92.80
16313;DHT22;8265;52.622;13.296;2022-12-07T19:17:30;-0.10;92.60
16313;DHT22;8265;52.622;13.296;2022-12-07T19:22:51;-0.20;92.90
16313;DHT22;8265;52.622;13.296;2022-12-07T19:28:12;-0.20;92.70
16313;DHT22;8265;52.622;13.296;2022-12-07T19:33:33;-0.30;93.00
16313;DHT22;8265;52.622;13.296;2022-12-07T19:38:54;-0.40;93.30
16313;DHT22;8265;52.622;13.296;2022-12-07T19:44:19;-0.50;93.60
16313;DHT22;8265;52.622;13.296;2022-12-07T19:49:36;-0.60;94.20
16313;DHT22;8265;52.622;13.296;2022-12-07T19:54:57;-0.40;94.10
16313;DHT22;8265;52.622;13.296;2022-12-07T20:00:18;-0.50;94.20
16313;DHT22;8265;52.622;13.296;2022-12-07T20:05:39;-0.60;94.60
16313;DHT22;8265;52.622;13.296;2022-12-07T20:11:00;-0.70;95.20
16313;DHT22;8265;52.622;13.296;2022-12-07T20:16:21;-0.70;95.60
16313;DHT22;8265;52.622;13.296;2022-12-07T20:21:42;-0.60;95.70
16313;DHT22;8265;52.622;13.296;2022-12-07T20:27:03;-0.60;96.20
16313;DHT22;8265;52.622;13.296;2022-12-07T20:32:24;-0.70;96.20
16313;DHT22;8265;52.622;13.296;2022-12-07T20:37:45;-0.80;96.70
16313;DHT22;8265;52.622;13.296;2022-12-07T20:43:07;-0.90;96.70
16313;DHT22;8265;52.622;13.296;2022-12-07T20:48:27;-0.70;97.20
16313;DHT22;8265;52.622;13.296;2022-12-07T20:53:48;-0.60;97.50
16313;DHT22;8265;52.622;13.296;2022-12-07T20:59:10;-0.60;97.20
16313;DHT22;8265;52.622;13.296;2022-12-07T21:04:30;-0.60;97.50
16313;DHT22;8265;52.622;13.296;2022-12-07T21:09:51;-0.70;97.50
16313;DHT22;8265;52.622;13.296;2022-12-07T21:15:12;-0.80;98.00
16313;DHT22;8265;52.622;13.296;2022-12-07T21:20:33;-0.90;98.00
16313;DHT22;8265;52.622;13.296;2022-12-07T21:25:54;-0.80;98.60
16313;DHT22;8265;52.622;13.296;2022-12-07T21:31:15;-0.70;98.00
16313;DHT22;8265;52.622;13.296;2022-12-07T21:36:36;-0.80;97.90
16313;DHT22;8265;52.622;13.296;2022-12-07T21:41:57;-0.90;98.30
16313;DHT22;8265;52.622;13.296;2022-12-07T21:47:18;-1.10;98.40
16313;DHT22;8265;52.622;13.296;2022-12-07T21:52:39;-1.00;98.80
16313;DHT22;8265;52.622;13.296;2022-12-07T21:58:00;-1.00;98.70
16313;DHT22;8265;52.622;13.296;2022-12-07T22:03:21;-0.90;98.70
16313;DHT22;8265;52.622;13.296;2022-12-07T22:08:42;-0.90;98.60
16313;DHT22;8265;52.622;13.296;2022-12-07T22:14:03;-1.00;98.50
16313;DHT22;8265;52.622;13.296;2022-12-07T22:19:24;-0.90;98.70
16313;DHT22;8265;52.622;13.296;2022-12-07T22:24:45;-0.70;98.90
16313;DHT22;8265;52.622;13.296;2022-12-07T22:30:07;-0.70;98.70
16313;DHT22;8265;52.622;13.296;2022-12-07T22:35:27;-0.50;98.30
16313;DHT22;8265;52.622;13.296;2022-12-07T22:40:48;-0.40;97.90
16313;DHT22;8265;52.622;13.296;2022-12-07T22:46:09;-0.20;97.40
16313;DHT22;8265;52.622;13.296;2022-12-07T22:51:31;-0.40;97.30
16313;DHT22;8265;52.622;13.296;2022-12-07T22:56:51;-0.50;97.20
16313;DHT22;8265;52.622;13.296;2022-12-07T23:02:12;-0.50;97.40
16313;DHT22;8265;52.622;13.296;2022-12-07T23:07:32;-0.60;97.60
16313;DHT22;8265;52.622;13.296;2022-12-07T23:12:53;-0.70;97.80
16313;DHT22;8265;52.622;13.296;2022-12-07T23:18:14;-0.80;97.90
16313;DHT22;8265;52.622;13.296;2022-12-07T23:23:35;-1.00;98.20
16313;DHT22;8265;52.622;13.296;2022-12-07T23:28:56;-1.10;98.20
16313;DHT22;8265;52.622;13.296;2022-12-07T23:34:17;-1.10;98.50
16313;DHT22;8265;52.622;13.296;2022-12-07T23:39:38;-1.10;98.70
16313;DHT22;8265;52.622;13.296;2022-12-07T23:44:59;-1.10;98.50
16313;DHT22;8265;52.622;13.296;2022-12-07T23:50:20;-1.00;98.60
16313;DHT22;8265;52.622;13.296;2022-12-07T23:55:44;-0.90;98.50
